sensor_id;sensor_type;location;lat;lon;timestamp;temperature;humidity
48666;DHT22;34452;50.796;4.994;2023-11-18T00:00:05;6.30;99.90
48666;DHT22;34452;50.796;4.994;2023-11-18T00:02:37;6.30;99.90
48666;DHT22;34452;50.796;4.994;2023-11-18T00:05:03;6.30;99.90
48666;DHT22;34452;50.796;4.994;2023-11-18T00:07:29;6.30;99.90
48666;DHT22;34452;50.796;4.994;2023-11-18T00:09:55;6.30;99.90
48666;DHT22;34452;50.796;4.994;2023-11-18T00:12:20;6.30;99.90
48666;DHT22;34452;50.796;4.994;2023-11-18T00:14:46;6.30;99.90
48666;DHT22;34452;50.796;4.994;2023-11-18T00:17:13;6.30;99.90
48666;DHT22;34452;50.796;4.994;2023-11-18T00:19:38;6.30;99.90
48666;DHT22;34452;50.796;4.994;2023-11-18T00:22:04;6.30;99.90
48666;DHT22;34452;50.796;4.994;2023-11-18T00:24:31;6.30;99.90
48666;DHT22;34452;50.796;4.994;2023-11-18T00:27:00;6.30;99.90
48666;DHT22;34452;50.796;4.994;2023-11-18T00:29:34;6.30;99.90
48666;DHT22;34452;50.796;4.994;2023-11-18T00:32:01;6.30;99.90
48666;DHT22;34452;50.796;4.994;2023-11-18T00:34:28;6.30;99.90
48666;DHT22;34452;50.796;4.994;2023-11-18T00:36:55;6.30;99.90
48666;DHT22;34452;50.796;4.994;2023-11-18T00:39:23;6.30;99.90
48666;DHT22;34452;50.796;4.994;2023-11-18T00:41:49;6.30;99.90
48666;DHT22;34452;50.796;4.994;2023-11-18T00:44:15;6.30;99.90
48666;DHT22;34452;50.796;4.994;2023-11-18T00:46:40;6.20;99.90
48666;DHT22;34452;50.796;4.994;2023-11-18T00:49:06;6.30;99.90
48666;DHT22;34452;50.796;4.994;2023-11-18T00:51:32;6.20;99.90
48666;DHT22;34452;50.796;4.994;2023-11-18T00:53:58;6.20;99.90
48666;DHT22;34452;50.796;4.994;2023-11-18T00:56:26;6.20;99.90
48666;DHT22;34452;50.796;4.994;2023-11-18T00:58:54;6.20;99.90
48666;DHT22;34452;50.796;4.994;2023-11-18T01:01:20;6.30;99.90
48666;DHT22;34452;50.796;4.994;2023-11-18T01:03:47;6.30;99.90
48666;DHT22;34452;50.796;4.994;2023-11-18T01:06:13;6.30;99.90
48666;DHT22;34452;50.796;4.994;2023-11-18T01:08:47;6.30;99.90
48666;DHT22;34452;50.796;4.994;2023-11-18T01:11:16;6.30;99.90
48666;DHT22;34452;50.796;4.994;2023-11-18T01:13:51;6.30;99.90
48666;DHT22;34452;50.796;4.994;2023-11-18T01:16:17;6.30;99.90
48666;DHT22;34452;50.796;4.994;2023-11-18T01:18:43;6.30;99.90
48666;DHT22;34452;50.796;4.994;2023-11-18T01:21:09;6.30;99.90
48666;DHT22;34452;50.796;4.994;2023-11-18T01:23:35;6.30;99.90
48666;DHT22;34452;50.796;4.994;2023-11-18T01:26:02;6.30;99.90
48666;DHT22;34452;50.796;4.994;2023-11-18T01:28:31;6.30;99.90
48666;DHT22;34452;50.796;4.994;2023-11-18T01:30:58;6.30;99.90
48666;DHT22;34452;50.796;4.994;2023-11-18T01:33:24;6.30;99.90
48666;DHT22;34452;50.796;4.994;2023-11-18T01:35:50;6.30;99.90
48666;DHT22;34452;50.796;4.994;2023-11-18T01:38:16;6.30;99.90
48666;DHT22;34452;50.796;4.994;2023-11-18T01:40:42;6.30;99.90
48666;DHT22;34452;50.796;4.994;2023-11-18T01:43:10;6.30;99.90
48666;DHT22;34452;50.796;4.994;2023-11-18T01:45:40;6.30;99.90
48666;DHT22;34452;50.796;4.994;2023-11-18T01:48:07;6.30;99.90
48666;DHT22;34452;50.796;4.994;2023-11-18T01:50:36;6.30;99.90
48666;DHT22;34452;50.796;4.994;2023-11-18T01:53:03;6.30;99.90
48666;DHT22;34452;50.796;4.994;2023-11-18T01:55:29;6.30;99.90
48666;DHT22;34452;50.796;4.994;2023-11-18T01:57:55;6.30;99.90
48666;DHT22;34452;50.796;4.994;2023-11-18T02:00:24;6.30;99.90
48666;DHT22;34452;50.796;4.994;2023-11-18T02:02:50;6.30;99.90
48666;DHT22;34452;50.796;4.994;2023-11-18T02:05:16;6.30;99.90
48666;DHT22;34452;50.796;4.994;2023-11-18T02:07:43;6.30;99.90
48666;DHT22;34452;50.796;4.994;2023-11-18T02:10:09;6.30;99.90
48666;DHT22;34452;50.796;4.994;2023-11-18T02:12:57;6.30;99.90
48666;DHT22;34452;50.796;4.994;2023-11-18T02:15:33;6.30;99.90
48666;DHT22;34452;50.796;4.994;2023-11-18T02:18:02;6.30;99.90
48666;DHT22;34452;50.796;4.994;2023-11-18T02:20:29;6.30;99.90
48666;DHT22;34452;50.796;4.994;2023-11-18T02:22:55;6.30;99.90
48666;DHT22;34452;50.796;4.994;2023-11-18T02:25:24;6.30;99.90
48666;DHT22;34452;50.796;4.994;2023-11-18T02:27:52;6.20;99.90
48666;DHT22;34452;50.796;4.994;2023-11-18T02:30:19;6.20;99.90
48666;DHT22;34452;50.796;4.994;2023-11-18T02:33:15;6.20;99.90
48666;DHT22;34452;50.796;4.994;2023-11-18T02:35:55;6.30;99.90
48666;DHT22;34452;50.796;4.994;2023-11-18T02:38:30;6.30;99.90
48666;DHT22;34452;50.796;4.994;2023-11-18T02:41:00;6.30;99.90
48666;DHT22;34452;50.796;4.994;2023-11-18T02:43:28;6.40;99.90
48666;DHT22;34452;50.796;4.994;2023-11-18T02:45:55;6.40;99.90
48666;DHT22;34452;50.796;4.994;2023-11-18T02:48:22;6.40;99.90
48666;DHT22;34452;50.796;4.994;2023-11-18T02:50:49;6.50;99.90
48666;DHT22;34452;50.796;4.994;2023-11-18T02:53:15;6.50;99.90
48666;DHT22;34452;50.796;4.994;2023-11-18T02:55:40;6.50;99.90
48666;DHT22;34452;50.796;4.994;2023-11-18T02:58:06;6.50;99.90
48666;DHT22;34452;50.796;4.994;2023-11-18T03:00:33;6.50;99.90
48666;DHT22;34452;50.796;4.994;2023-11-18T03:02:59;6.50;99.90
48666;DHT22;34452;50.796;4.994;2023-11-18T03:05:25;6.60;99.90
48666;DHT22;34452;50.796;4.994;2023-11-18T03:07:52;6.60;99.90
48666;DHT22;34452;50.796;4.994;2023-11-18T03:10:20;6.60;99.90
48666;DHT22;34452;50.796;4.994;2023-11-18T03:12:47;6.60;99.90
48666;DHT22;34452;50.796;4.994;2023-11-18T03:15:13;6.60;99.90
48666;DHT22;34452;50.796;4.994;2023-11-18T03:17:45;6.60;99.90
48666;DHT22;34452;50.796;4.994;2023-11-18T03:20:14;6.60;99.90
48666;DHT22;34452;50.796;4.994;2023-11-18T03:22:43;6.60;99.90
48666;DHT22;34452;50.796;4.994;2023-11-18T03:25:10;6.60;99.90
48666;DHT22;34452;50.796;4.994;2023-11-18T03:27:36;6.60;99.90
48666;DHT22;34452;50.796;4.994;2023-11-18T03:30:02;6.60;99.90
48666;DHT22;34452;50.796;4.994;2023-11-18T03:32:28;6.60;99.90
48666;DHT22;34452;50.796;4.994;2023-11-18T03:34:54;6.60;99.90
48666;DHT22;34452;50.796;4.994;2023-11-18T03:37:20;6.60;99.90
48666;DHT22;34452;50.796;4.994;2023-11-18T03:39:48;6.60;99.90
48666;DHT22;34452;50.796;4.994;2023-11-18T03:42:14;6.60;99.90
48666;DHT22;34452;50.796;4.994;2023-11-18T03:44:41;6.60;99.90
48666;DHT22;34452;50.796;4.994;2023-11-18T03:47:06;6.60;99.90
48666;DHT22;34452;50.796;4.994;2023-11-18T03:49:32;6.60;99.90
48666;DHT22;34452;50.796;4.994;2023-11-18T03:51:58;6.60;99.90
48666;DHT22;34452;50.796;4.994;2023-11-18T03:54:24;6.60;99.90
48666;DHT22;34452;50.796;4.994;2023-11-18T03:56:50;6.60;99.90
48666;DHT22;34452;50.796;4.994;2023-11-18T03:59:16;6.60;99.90
48666;DHT22;34452;50.796;4.994;2023-11-18T04:01:41;6.60;99.90
48666;DHT22;34452;50.796;4.994;2023-11-18T04:04:07;6.60;99.90
48666;DHT22;34452;50.796;4.994;2023-11-18T04:06:33;6.70;99.90
48666;DHT22;34452;50.796;4.994;2023-11-18T04:08:58;6.70;99.90
48666;DHT22;34452;50.796;4.994;2023-11-18T04:11:24;6.70;99.90
48666;DHT22;34452;50.796;4.994;2023-11-18T04:13:50;6.70;99.90
48666;DHT22;34452;50.796;4.994;2023-11-18T04:16:16;6.70;99.90
48666;DHT22;34452;50.796;4.994;2023-11-18T04:18:43;6.70;99.90
48666;DHT22;34452;50.796;4.994;2023-11-18T04:21:09;6.80;99.90
48666;DHT22;34452;50.796;4.994;2023-11-18T04:23:40;6.80;99.90
48666;DHT22;34452;50.796;4.994;2023-11-18T04:26:07;6.80;99.90
48666;DHT22;34452;50.796;4.994;2023-11-18T04:28:36;6.80;99.90
48666;DHT22;34452;50.796;4.994;2023-11-18T04:31:02;6.80;99.90
48666;DHT22;34452;50.796;4.994;2023-11-18T04:33:28;6.90;99.90
48666;DHT22;34452;50.796;4.994;2023-11-18T04:35:55;6.90;99.90
48666;DHT22;34452;50.796;4.994;2023-11-18T04:38:23;6.90;99.90
48666;DHT22;34452;50.796;4.994;2023-11-18T04:40:48;6.90;99.90
48666;DHT22;34452;50.796;4.994;2023-11-18T04:43:15;6.90;99.90
48666;DHT22;34452;50.796;4.994;2023-11-18T04:45:42;6.90;99.90
48666;DHT22;34452;50.796;4.994;2023-11-18T04:48:08;6.90;99.90
48666;DHT22;34452;50.796;4.994;2023-11-18T04:50:34;6.90;99.90
48666;DHT22;34452;50.796;4.994;2023-11-18T04:53:00;7.00;99.90
48666;DHT22;34452;50.796;4.994;2023-11-18T04:55:26;7.00;99.90
48666;DHT22;34452;50.796;4.994;2023-11-18T04:57:52;7.00;99.90
48666;DHT22;34452;50.796;4.994;2023-11-18T05:00:18;7.10;99.90
48666;DHT22;34452;50.796;4.994;2023-11-18T05:02:45;7.10;99.90
48666;DHT22;34452;50.796;4.994;2023-11-18T05:05:13;7.10;99.90
48666;DHT22;34452;50.796;4.994;2023-11-18T05:07:41;7.10;99.90
48666;DHT22;34452;50.796;4.994;2023-11-18T05:10:07;7.10;99.90
48666;DHT22;34452;50.796;4.994;2023-11-18T05:12:33;7.10;99.90
48666;DHT22;34452;50.796;4.994;2023-11-18T05:15:00;7.10;99.90
48666;DHT22;34452;50.796;4.994;2023-11-18T05:17:26;7.20;99.90
48666;DHT22;34452;50.796;4.994;2023-11-18T05:19:52;7.20;99.90
48666;DHT22;34452;50.796;4.994;2023-11-18T05:22:19;7.10;99.90
48666;DHT22;34452;50.796;4.994;2023-11-18T05:24:46;7.20;99.90
48666;DHT22;34452;50.796;4.994;2023-11-18T05:27:13;7.20;99.90
48666;DHT22;34452;50.796;4.994;2023-11-18T05:29:39;7.20;99.90
48666;DHT22;34452;50.796;4.994;2023-11-18T05:32:07;7.20;99.90
48666;DHT22;34452;50.796;4.994;2023-11-18T05:34:33;7.20;99.90
48666;DHT22;34452;50.796;4.994;2023-11-18T05:37:01;7.20;99.90
48666;DHT22;34452;50.796;4.994;2023-11-18T05:39:27;7.20;99.90
48666;DHT22;34452;50.796;4.994;2023-11-18T05:41:57;7.20;99.90
48666;DHT22;34452;50.796;4.994;2023-11-18T05:44:23;7.20;99.90
48666;DHT22;34452;50.796;4.994;2023-11-18T05:46:57;7.30;99.90
48666;DHT22;34452;50.796;4.994;2023-11-18T05:49:23;7.30;99.90
48666;DHT22;34452;50.796;4.994;2023-11-18T05:51:50;7.40;99.90
48666;DHT22;34452;50.796;4.994;2023-11-18T05:54:16;7.40;99.90
48666;DHT22;34452;50.796;4.994;2023-11-18T05:56:41;7.40;99.90
48666;DHT22;34452;50.796;4.994;2023-11-18T05:59:07;7.40;99.90
48666;DHT22;34452;50.796;4.994;2023-11-18T06:01:33;7.40;99.90
48666;DHT22;34452;50.796;4.994;2023-11-18T06:04:00;7.40;99.90
48666;DHT22;34452;50.796;4.994;2023-11-18T06:06:26;7.40;99.90
48666;DHT22;34452;50.796;4.994;2023-11-18T06:08:52;7.40;99.90
48666;DHT22;34452;50.796;4.994;2023-11-18T06:11:19;7.40;99.90
48666;DHT22;34452;50.796;4.994;2023-11-18T06:13:45;7.40;99.90
48666;DHT22;34452;50.796;4.994;2023-11-18T06:16:18;7.40;99.90
48666;DHT22;34452;50.796;4.994;2023-11-18T06:18:49;7.40;99.90
48666;DHT22;34452;50.796;4.994;2023-11-18T06:21:16;7.50;99.90
48666;DHT22;34452;50.796;4.994;2023-11-18T06:23:44;7.50;99.90
48666;DHT22;34452;50.796;4.994;2023-11-18T06:26:14;7.50;99.90
48666;DHT22;34452;50.796;4.994;2023-11-18T06:28:44;7.50;99.90
48666;DHT22;34452;50.796;4.994;2023-11-18T06:31:11;7.50;99.90
48666;DHT22;34452;50.796;4.994;2023-11-18T06:33:41;7.50;99.90
48666;DHT22;34452;50.796;4.994;2023-11-18T06:38:47;7.60;99.90
48666;DHT22;34452;50.796;4.994;2023-11-18T06:41:16;7.60;99.90
48666;DHT22;34452;50.796;4.994;2023-11-18T06:43:46;7.60;99.90
48666;DHT22;34452;50.796;4.994;2023-11-18T06:46:22;7.70;99.90
48666;DHT22;34452;50.796;4.994;2023-11-18T06:48:53;7.70;99.90
48666;DHT22;34452;50.796;4.994;2023-11-18T06:51:23;7.70;99.90
48666;DHT22;34452;50.796;4.994;2023-11-18T06:53:53;7.80;99.90
48666;DHT22;34452;50.796;4.994;2023-11-18T06:56:23;7.80;99.90
48666;DHT22;34452;50.796;4.994;2023-11-18T06:58:49;7.80;99.90
48666;DHT22;34452;50.796;4.994;2023-11-18T07:01:15;7.80;99.90
48666;DHT22;34452;50.796;4.994;2023-11-18T07:03:45;7.90;99.90
48666;DHT22;34452;50.796;4.994;2023-11-18T07:06:11;7.90;99.90
48666;DHT22;34452;50.796;4.994;2023-11-18T07:08:40;7.90;99.90
48666;DHT22;34452;50.796;4.994;2023-11-18T07:11:05;7.90;99.90
48666;DHT22;34452;50.796;4.994;2023-11-18T07:13:32;7.90;99.90
48666;DHT22;34452;50.796;4.994;2023-11-18T07:16:02;7.90;99.90
48666;DHT22;34452;50.796;4.994;2023-11-18T07:18:29;7.90;99.90
48666;DHT22;34452;50.796;4.994;2023-11-18T07:21:01;7.90;99.90
48666;DHT22;34452;50.796;4.994;2023-11-18T07:23:28;8.00;99.90
48666;DHT22;34452;50.796;4.994;2023-11-18T07:25:54;8.10;99.90
48666;DHT22;34452;50.796;4.994;2023-11-18T07:28:22;8.10;99.90
48666;DHT22;34452;50.796;4.994;2023-11-18T07:30:48;8.10;99.90
48666;DHT22;34452;50.796;4.994;2023-11-18T07:33:17;8.10;99.90
48666;DHT22;34452;50.796;4.994;2023-11-18T07:35:44;8.10;99.90
48666;DHT22;34452;50.796;4.994;2023-11-18T07:38:12;8.20;99.90
48666;DHT22;34452;50.796;4.994;2023-11-18T07:40:38;8.20;99.90
48666;DHT22;34452;50.796;4.994;2023-11-18T07:43:11;8.20;99.90
48666;DHT22;34452;50.796;4.994;2023-11-18T07:45:37;8.20;99.90
48666;DHT22;34452;50.796;4.994;2023-11-18T07:48:07;8.20;99.90
48666;DHT22;34452;50.796;4.994;2023-11-18T07:50:36;8.20;99.90
48666;DHT22;34452;50.796;4.994;2023-11-18T07:53:03;8.20;99.90
48666;DHT22;34452;50.796;4.994;2023-11-18T07:55:29;8.30;99.90
48666;DHT22;34452;50.796;4.994;2023-11-18T07:57:55;8.30;99.90
48666;DHT22;34452;50.796;4.994;2023-11-18T08:00:21;8.30;99.90
48666;DHT22;34452;50.796;4.994;2023-11-18T08:02:49;8.30;99.90
48666;DHT22;34452;50.796;4.994;2023-11-18T08:05:15;8.40;99.90
48666;DHT22;34452;50.796;4.994;2023-11-18T08:07:41;8.40;99.90
48666;DHT22;34452;50.796;4.994;2023-11-18T08:10:09;8.40;99.90
48666;DHT22;34452;50.796;4.994;2023-11-18T08:12:39;8.40;99.90
48666;DHT22;34452;50.796;4.994;2023-11-18T08:15:06;8.40;99.90
48666;DHT22;34452;50.796;4.994;2023-11-18T08:17:32;8.50;99.90
48666;DHT22;34452;50.796;4.994;2023-11-18T08:19:59;8.50;99.90
48666;DHT22;34452;50.796;4.994;2023-11-18T08:22:25;8.40;99.90
48666;DHT22;34452;50.796;4.994;2023-11-18T08:24:51;8.40;99.90
48666;DHT22;34452;50.796;4.994;2023-11-18T08:27:17;8.40;99.90
48666;DHT22;34452;50.796;4.994;2023-11-18T08:29:43;8.50;99.90
48666;DHT22;34452;50.796;4.994;2023-11-18T08:32:09;8.50;99.90
48666;DHT22;34452;50.796;4.994;2023-11-18T08:34:38;8.50;99.90
48666;DHT22;34452;50.796;4.994;2023-11-18T08:37:04;8.50;99.90
48666;DHT22;34452;50.796;4.994;2023-11-18T08:39:30;8.50;99.90
48666;DHT22;34452;50.796;4.994;2023-11-18T08:41:56;8.50;99.90
48666;DHT22;34452;50.796;4.994;2023-11-18T08:44:22;8.50;99.90
48666;DHT22;34452;50.796;4.994;2023-11-18T08:46:52;8.60;99.90
48666;DHT22;34452;50.796;4.994;2023-11-18T08:49:18;8.60;99.90
48666;DHT22;34452;50.796;4.994;2023-11-18T08:51:50;8.60;99.90
48666;DHT22;34452;50.796;4.994;2023-11-18T08:54:22;8.60;99.90
48666;DHT22;34452;50.796;4.994;2023-11-18T08:56:53;8.60;99.90
48666;DHT22;34452;50.796;4.994;2023-11-18T08:59:23;8.60;99.90
48666;DHT22;34452;50.796;4.994;2023-11-18T09:01:52;8.60;99.90
48666;DHT22;34452;50.796;4.994;2023-11-18T09:04:24;8.60;99.90
48666;DHT22;34452;50.796;4.994;2023-11-18T09:06:51;8.60;99.90
48666;DHT22;34452;50.796;4.994;2023-11-18T09:09:21;8.70;99.90
48666;DHT22;34452;50.796;4.994;2023-11-18T09:11:56;8.70;99.90
48666;DHT22;34452;50.796;4.994;2023-11-18T09:14:26;8.70;99.90
48666;DHT22;34452;50.796;4.994;2023-11-18T09:16:53;8.70;99.90
48666;DHT22;34452;50.796;4.994;2023-11-18T09:19:21;8.70;99.90
48666;DHT22;34452;50.796;4.994;2023-11-18T09:21:47;8.80;99.90
48666;DHT22;34452;50.796;4.994;2023-11-18T09:24:14;8.80;99.90
48666;DHT22;34452;50.796;4.994;2023-11-18T09:26:46;8.80;99.90
48666;DHT22;34452;50.796;4.994;2023-11-18T09:29:16;8.80;99.90
48666;DHT22;34452;50.796;4.994;2023-11-18T09:31:50;8.80;99.90
48666;DHT22;34452;50.796;4.994;2023-11-18T09:34:18;8.80;99.90
48666;DHT22;34452;50.796;4.994;2023-11-18T09:36:53;8.90;99.90
48666;DHT22;34452;50.796;4.994;2023-11-18T09:39:19;8.90;99.90
48666;DHT22;34452;50.796;4.994;2023-11-18T09:42:05;8.90;99.90
48666;DHT22;34452;50.796;4.994;2023-11-18T09:44:35;8.90;99.90
48666;DHT22;34452;50.796;4.994;2023-11-18T09:47:07;9.00;99.90
48666;DHT22;34452;50.796;4.994;2023-11-18T09:49:40;9.00;99.90
48666;DHT22;34452;50.796;4.994;2023-11-18T09:52:07;9.00;99.90
48666;DHT22;34452;50.796;4.994;2023-11-18T09:54:40;9.00;99.90
48666;DHT22;34452;50.796;4.994;2023-11-18T10:02:39;9.20;99.90
48666;DHT22;34452;50.796;4.994;2023-11-18T10:05:06;9.20;99.90
48666;DHT22;34452;50.796;4.994;2023-11-18T10:07:39;9.30;99.90
48666;DHT22;34452;50.796;4.994;2023-11-18T10:10:10;9.30;99.90
48666;DHT22;34452;50.796;4.994;2023-11-18T10:15:09;9.40;99.90
48666;DHT22;34452;50.796;4.994;2023-11-18T10:17:43;9.40;99.90
48666;DHT22;34452;50.796;4.994;2023-11-18T10:23:08;9.40;99.90
48666;DHT22;34452;50.796;4.994;2023-11-18T10:25:36;9.40;99.90
48666;DHT22;34452;50.796;4.994;2023-11-18T10:28:07;9.40;99.90
48666;DHT22;34452;50.796;4.994;2023-11-18T10:30:43;9.40;99.90
48666;DHT22;34452;50.796;4.994;2023-11-18T10:33:13;9.50;99.90
48666;DHT22;34452;50.796;4.994;2023-11-18T10:35:49;9.50;99.90
48666;DHT22;34452;50.796;4.994;2023-11-18T10:38:16;9.50;99.90
48666;DHT22;34452;50.796;4.994;2023-11-18T10:40:42;9.50;99.90
48666;DHT22;34452;50.796;4.994;2023-11-18T10:43:10;9.50;99.90
48666;DHT22;34452;50.796;4.994;2023-11-18T10:45:42;9.50;99.90
48666;DHT22;34452;50.796;4.994;2023-11-18T10:48:08;9.60;99.90
48666;DHT22;34452;50.796;4.994;2023-11-18T10:50:34;9.60;99.90
48666;DHT22;34452;50.796;4.994;2023-11-18T10:53:00;9.60;99.90
48666;DHT22;34452;50.796;4.994;2023-11-18T10:55:40;9.60;99.90
48666;DHT22;34452;50.796;4.994;2023-11-18T10:58:06;9.60;99.90
48666;DHT22;34452;50.796;4.994;2023-11-18T11:00:48;9.60;99.90
48666;DHT22;34452;50.796;4.994;2023-11-18T11:03:15;9.60;99.90
48666;DHT22;34452;50.796;4.994;2023-11-18T11:05:41;9.60;99.90
48666;DHT22;34452;50.796;4.994;2023-11-18T11:08:11;9.50;99.90
48666;DHT22;34452;50.796;4.994;2023-11-18T11:10:45;9.60;99.90
48666;DHT22;34452;50.796;4.994;2023-11-18T11:13:14;9.60;99.90
48666;DHT22;34452;50.796;4.994;2023-11-18T11:15:44;9.60;99.90
48666;DHT22;34452;50.796;4.994;2023-11-18T11:18:20;9.60;99.90
48666;DHT22;34452;50.796;4.994;2023-11-18T11:24:06;9.60;99.90
48666;DHT22;34452;50.796;4.994;2023-11-18T11:27:22;9.60;99.90
48666;DHT22;34452;50.796;4.994;2023-11-18T11:29:59;9.60;99.90
48666;DHT22;34452;50.796;4.994;2023-11-18T11:32:43;9.60;99.90
48666;DHT22;34452;50.796;4.994;2023-11-18T11:35:18;9.60;99.90
48666;DHT22;34452;50.796;4.994;2023-11-18T11:37:47;9.60;99.90
48666;DHT22;34452;50.796;4.994;2023-11-18T11:40:14;9.60;99.90
48666;DHT22;34452;50.796;4.994;2023-11-18T11:42:50;9.60;99.90
48666;DHT22;34452;50.796;4.994;2023-11-18T11:45:25;9.60;99.90
48666;DHT22;34452;50.796;4.994;2023-11-18T11:47:58;9.60;99.90
48666;DHT22;34452;50.796;4.994;2023-11-18T11:53:46;9.60;99.90
48666;DHT22;34452;50.796;4.994;2023-11-18T11:56:13;9.50;99.90
48666;DHT22;34452;50.796;4.994;2023-11-18T11:58:41;9.50;99.90
48666;DHT22;34452;50.796;4.994;2023-11-18T12:01:22;9.60;99.90
48666;DHT22;34452;50.796;4.994;2023-11-18T12:03:52;9.60;99.90
48666;DHT22;34452;50.796;4.994;2023-11-18T12:06:23;9.60;99.90
48666;DHT22;34452;50.796;4.994;2023-11-18T12:08:52;9.60;99.90
48666;DHT22;34452;50.796;4.994;2023-11-18T12:11:19;9.60;99.90
48666;DHT22;34452;50.796;4.994;2023-11-18T12:14:06;9.60;99.90
48666;DHT22;34452;50.796;4.994;2023-11-18T12:17:06;9.60;99.90
48666;DHT22;34452;50.796;4.994;2023-11-18T12:19:47;9.70;99.90
48666;DHT22;34452;50.796;4.994;2023-11-18T12:22:14;9.80;99.90
48666;DHT22;34452;50.796;4.994;2023-11-18T12:32:59;10.00;99.90
48666;DHT22;34452;50.796;4.994;2023-11-18T12:41:36;10.00;99.90
48666;DHT22;34452;50.796;4.994;2023-11-18T12:49:17;9.90;99.90
48666;DHT22;34452;50.796;4.994;2023-11-18T12:51:52;9.90;99.90
48666;DHT22;34452;50.796;4.994;2023-11-18T12:54:19;9.80;99.90
48666;DHT22;34452;50.796;4.994;2023-11-18T12:56:46;9.80;99.90
48666;DHT22;34452;50.796;4.994;2023-11-18T12:59:17;9.80;99.90
48666;DHT22;34452;50.796;4.994;2023-11-18T13:01:49;9.80;99.90
48666;DHT22;34452;50.796;4.994;2023-11-18T13:04:33;9.80;99.90
48666;DHT22;34452;50.796;4.994;2023-11-18T13:07:06;9.80;99.90
48666;DHT22;34452;50.796;4.994;2023-11-18T13:09:34;9.80;99.90
48666;DHT22;34452;50.796;4.994;2023-11-18T13:12:02;9.70;99.90
48666;DHT22;34452;50.796;4.994;2023-11-18T13:14:35;9.70;99.90
48666;DHT22;34452;50.796;4.994;2023-11-18T13:17:12;9.70;99.90
48666;DHT22;34452;50.796;4.994;2023-11-18T13:19:42;9.70;99.90
48666;DHT22;34452;50.796;4.994;2023-11-18T13:22:11;9.70;99.90
48666;DHT22;34452;50.796;4.994;2023-11-18T13:24:41;9.70;99.90
48666;DHT22;34452;50.796;4.994;2023-11-18T13:27:15;9.70;99.90
48666;DHT22;34452;50.796;4.994;2023-11-18T13:29:45;9.70;99.90
48666;DHT22;34452;50.796;4.994;2023-11-18T13:32:11;9.60;99.90
48666;DHT22;34452;50.796;4.994;2023-11-18T13:34:39;9.60;99.90
48666;DHT22;34452;50.796;4.994;2023-11-18T13:37:08;9.60;99.90
48666;DHT22;34452;50.796;4.994;2023-11-18T13:39:38;9.60;99.90
48666;DHT22;34452;50.796;4.994;2023-11-18T13:42:24;9.60;99.90
48666;DHT22;34452;50.796;4.994;2023-11-18T13:44:50;9.60;99.90
48666;DHT22;34452;50.796;4.994;2023-11-18T13:47:18;9.60;99.90
48666;DHT22;34452;50.796;4.994;2023-11-18T13:49:50;9.60;99.90
48666;DHT22;34452;50.796;4.994;2023-11-18T13:52:18;9.60;99.90
48666;DHT22;34452;50.796;4.994;2023-11-18T13:54:45;9.60;99.90
48666;DHT22;34452;50.796;4.994;2023-11-18T13:57:12;9.60;99.90
48666;DHT22;34452;50.796;4.994;2023-11-18T13:59:38;9.60;99.90
48666;DHT22;34452;50.796;4.994;2023-11-18T14:02:05;9.70;99.90
48666;DHT22;34452;50.796;4.994;2023-11-18T14:04:33;9.70;99.90
48666;DHT22;34452;50.796;4.994;2023-11-18T14:07:01;9.70;99.90
48666;DHT22;34452;50.796;4.994;2023-11-18T14:09:31;9.70;99.90
48666;DHT22;34452;50.796;4.994;2023-11-18T14:12:02;9.80;99.90
48666;DHT22;34452;50.796;4.994;2023-11-18T14:14:28;9.80;99.90
48666;DHT22;34452;50.796;4.994;2023-11-18T14:16:55;9.80;99.90
48666;DHT22;34452;50.796;4.994;2023-11-18T14:19:28;9.80;99.90
48666;DHT22;34452;50.796;4.994;2023-11-18T14:21:55;9.80;99.90
48666;DHT22;34452;50.796;4.994;2023-11-18T14:24:22;9.80;99.90
48666;DHT22;34452;50.796;4.994;2023-11-18T14:26:54;9.80;99.90
48666;DHT22;34452;50.796;4.994;2023-11-18T14:29:20;9.80;99.90
48666;DHT22;34452;50.796;4.994;2023-11-18T14:31:46;9.80;99.90
48666;DHT22;34452;50.796;4.994;2023-11-18T14:34:12;9.80;99.90
48666;DHT22;34452;50.796;4.994;2023-11-18T14:36:38;9.80;99.90
48666;DHT22;34452;50.796;4.994;2023-11-18T14:39:04;9.80;99.90
48666;DHT22;34452;50.796;4.994;2023-11-18T14:41:31;9.90;99.90
48666;DHT22;34452;50.796;4.994;2023-11-18T14:43:59;9.90;99.90
48666;DHT22;34452;50.796;4.994;2023-11-18T14:46:27;9.90;99.90
48666;DHT22;34452;50.796;4.994;2023-11-18T14:48:53;9.90;99.90
48666;DHT22;34452;50.796;4.994;2023-11-18T14:51:19;9.90;99.90
48666;DHT22;34452;50.796;4.994;2023-11-18T14:53:46;9.90;99.90
48666;DHT22;34452;50.796;4.994;2023-11-18T14:56:12;9.90;99.90
48666;DHT22;34452;50.796;4.994;2023-11-18T14:58:38;9.90;99.90
48666;DHT22;34452;50.796;4.994;2023-11-18T15:01:04;9.90;99.90
48666;DHT22;34452;50.796;4.994;2023-11-18T15:03:33;9.90;99.90
48666;DHT22;34452;50.796;4.994;2023-11-18T15:05:59;9.90;99.90
48666;DHT22;34452;50.796;4.994;2023-11-18T15:08:25;9.90;99.90
48666;DHT22;34452;50.796;4.994;2023-11-18T15:10:51;9.90;99.90
48666;DHT22;34452;50.796;4.994;2023-11-18T15:13:17;9.90;99.90
48666;DHT22;34452;50.796;4.994;2023-11-18T15:15:44;9.90;99.90
48666;DHT22;34452;50.796;4.994;2023-11-18T15:18:13;9.90;99.90
48666;DHT22;34452;50.796;4.994;2023-11-18T15:20:43;9.90;99.90
48666;DHT22;34452;50.796;4.994;2023-11-18T15:23:09;10.00;99.90
48666;DHT22;34452;50.796;4.994;2023-11-18T15:25:35;10.00;99.90
48666;DHT22;34452;50.796;4.994;2023-11-18T15:28:01;10.00;99.90
48666;DHT22;34452;50.796;4.994;2023-11-18T15:30:27;9.90;99.90
48666;DHT22;34452;50.796;4.994;2023-11-18T15:32:54;9.90;99.90
48666;DHT22;34452;50.796;4.994;2023-11-18T15:35:20;10.00;99.90
48666;DHT22;34452;50.796;4.994;2023-11-18T15:37:46;10.00;99.90
48666;DHT22;34452;50.796;4.994;2023-11-18T15:40:16;9.90;99.90
48666;DHT22;34452;50.796;4.994;2023-11-18T15:42:48;9.90;99.90
48666;DHT22;34452;50.796;4.994;2023-11-18T15:45:23;9.90;99.90
48666;DHT22;34452;50.796;4.994;2023-11-18T15:47:50;10.00;99.90
48666;DHT22;34452;50.796;4.994;2023-11-18T15:50:16;10.00;99.90
48666;DHT22;34452;50.796;4.994;2023-11-18T15:52:52;10.00;99.90
48666;DHT22;34452;50.796;4.994;2023-11-18T15:55:18;10.00;99.90
48666;DHT22;34452;50.796;4.994;2023-11-18T15:57:46;10.10;99.90
48666;DHT22;34452;50.796;4.994;2023-11-18T16:00:26;10.10;99.90
48666;DHT22;34452;50.796;4.994;2023-11-18T16:02:52;10.10;99.90
48666;DHT22;34452;50.796;4.994;2023-11-18T16:05:20;10.10;99.90
48666;DHT22;34452;50.796;4.994;2023-11-18T16:07:48;10.10;99.90
48666;DHT22;34452;50.796;4.994;2023-11-18T16:10:17;10.20;99.90
48666;DHT22;34452;50.796;4.994;2023-11-18T16:12:49;10.20;99.90
48666;DHT22;34452;50.796;4.994;2023-11-18T16:15:19;10.20;99.90
48666;DHT22;34452;50.796;4.994;2023-11-18T16:17:46;10.20;99.90
48666;DHT22;34452;50.796;4.994;2023-11-18T16:20:12;10.30;99.90
48666;DHT22;34452;50.796;4.994;2023-11-18T16:22:45;10.20;99.90
48666;DHT22;34452;50.796;4.994;2023-11-18T16:25:17;10.30;99.90
48666;DHT22;34452;50.796;4.994;2023-11-18T16:27:52;10.30;99.90
48666;DHT22;34452;50.796;4.994;2023-11-18T16:30:20;10.30;99.90
48666;DHT22;34452;50.796;4.994;2023-11-18T16:32:50;10.40;99.90